Time;durP1;ratioP1;P1;durP2;ratioP2;P2;SDS_P1;SDS_P2;PMS_P1;PMS_P2;Temp;Humidity;BMP_temperature;BMP_pressure;BME280_temperature;BME280_humidity;BME280_pressure;Samples;Min_cycle;Max_cycle;Signal;HPM_P1;HPM_P2
2021/12/11 00:00:29;;;;;;;52.13;23.87;;;1.40;99.90;;;;;;5030119;28;20412;-70
2021/12/11 00:03:02;;;;;;;53.63;24.70;;;1.40;99.90;;;;;;5029758;28;20053;-70
2021/12/11 00:05:29;;;;;;;51.30;23.90;;;1.40;99.90;;;;;;5029210;28;20057;-70
2021/12/11 00:07:58;;;;;;;50.37;23.73;;;1.40;99.90;;;;;;5030137;28;20138;-70
2021/12/11 00:10:29;;;;;;;47.40;23.63;;;1.50;99.90;;;;;;5029703;28;20050;-70
2021/12/11 00:15:35;;;;;;;46.27;23.43;;;1.50;99.90;;;;;;5590431;22;20557;-69
2021/12/11 00:18:06;;;;;;;48.20;23.50;;;1.60;99.90;;;;;;5111416;28;20563;-70
2021/12/11 00:20:38;;;;;;;50.73;23.40;;;1.60;99.90;;;;;;5110838;28;20474;-69
2021/12/11 00:23:06;;;;;;;52.67;24.00;;;1.50;99.90;;;;;;5109380;28;20499;-69
2021/12/11 00:25:42;;;;;;;47.77;24.13;;;1.60;99.90;;;;;;5108980;28;20069;-69
2021/12/11 00:28:09;;;;;;;57.80;25.33;;;1.60;99.90;;;;;;5109675;28;20103;-69
2021/12/11 00:30:39;;;;;;;56.80;24.20;;;1.60;99.90;;;;;;5122753;28;20047;-69
2021/12/11 00:33:10;;;;;;;53.90;24.80;;;1.60;99.90;;;;;;5110172;28;20047;-69
2021/12/11 00:35:37;;;;;;;50.50;25.13;;;1.60;99.90;;;;;;5115156;28;20073;-69
2021/12/11 00:38:07;;;;;;;59.10;25.47;;;1.60;99.90;;;;;;5117477;28;20093;-70
2021/12/11 00:40:37;;;;;;;53.07;25.90;;;1.60;99.90;;;;;;5121894;28;20047;-70
2021/12/11 00:43:07;;;;;;;53.47;25.07;;;1.60;99.90;;;;;;5116266;28;20096;-70
2021/12/11 00:45:38;;;;;;;55.00;24.87;;;1.60;99.90;;;;;;5109050;28;20047;-70
2021/12/11 00:48:07;;;;;;;52.30;25.23;;;1.60;99.90;;;;;;5109205;28;20048;-69
2021/12/11 00:50:37;;;;;;;55.50;26.23;;;1.60;99.90;;;;;;5109653;28;20043;-70
2021/12/11 00:53:10;;;;;;;51.20;26.10;;;1.60;99.90;;;;;;5108926;28;20105;-69
2021/12/11 00:55:41;;;;;;;56.20;25.70;;;1.60;99.90;;;;;;5109902;28;20081;-69
2021/12/11 00:58:11;;;;;;;55.83;26.67;;;1.60;99.90;;;;;;5113169;28;20469;-69
2021/12/11 01:00:44;;;;;;;56.83;26.50;;;1.60;99.90;;;;;;5113025;28;20116;-69
2021/12/11 01:03:15;;;;;;;58.53;27.67;;;1.60;99.90;;;;;;5112685;28;20087;-70
2021/12/11 01:05:45;;;;;;;60.87;28.00;;;1.60;99.90;;;;;;5112215;28;20048;-69
2021/12/11 01:08:16;;;;;;;58.67;27.20;;;1.60;99.90;;;;;;5112562;28;20575;-69
2021/12/11 01:10:45;;;;;;;58.93;27.63;;;1.60;99.90;;;;;;5112815;28;20453;-69
2021/12/11 01:13:15;;;;;;;59.47;26.57;;;1.60;99.90;;;;;;5112584;28;20136;-69
2021/12/11 01:15:54;;;;;;;58.67;27.07;;;1.70;99.90;;;;;;5111604;28;20120;-69
2021/12/11 01:18:35;;;;;;;55.70;26.57;;;1.60;99.90;;;;;;5112503;28;20087;-69
2021/12/11 01:21:17;;;;;;;60.83;27.07;;;1.60;99.90;;;;;;5112981;28;20056;-69
2021/12/11 01:24:07;;;;;;;65.70;27.97;;;1.60;99.90;;;;;;5112103;28;20087;-69
2021/12/11 01:26:37;;;;;;;61.23;27.90;;;1.60;99.90;;;;;;5111421;28;20052;-69
2021/12/11 01:29:05;;;;;;;59.83;27.07;;;1.60;99.90;;;;;;5112444;28;20118;-69
2021/12/11 01:31:32;;;;;;;64.67;28.27;;;1.60;99.90;;;;;;5112301;28;20051;-69
2021/12/11 01:33:59;;;;;;;57.17;26.13;;;1.70;99.90;;;;;;5112269;28;20462;-69
2021/12/11 01:36:26;;;;;;;59.27;28.10;;;1.70;99.90;;;;;;5111786;28;20120;-69
2021/12/11 01:38:56;;;;;;;65.23;27.80;;;1.60;99.90;;;;;;5111858;28;20044;-69
2021/12/11 01:41:24;;;;;;;57.13;25.57;;;1.60;99.90;;;;;;5112341;28;20047;-69
2021/12/11 01:43:56;;;;;;;57.40;26.53;;;1.60;99.90;;;;;;5111976;28;20457;-69
2021/12/11 01:46:25;;;;;;;60.40;28.77;;;1.60;99.90;;;;;;5111435;28;20452;-69
2021/12/11 01:48:58;;;;;;;70.63;30.03;;;1.70;99.90;;;;;;5111560;28;20100;-69
2021/12/11 01:51:31;;;;;;;65.40;29.10;;;1.60;99.90;;;;;;5112194;28;20117;-69
2021/12/11 01:54:02;;;;;;;75.47;31.03;;;1.70;99.90;;;;;;5111925;28;20055;-69
2021/12/11 01:56:32;;;;;;;66.40;28.33;;;1.70;99.90;;;;;;5111521;28;20325;-69
2021/12/11 01:59:04;;;;;;;61.90;27.87;;;1.70;99.90;;;;;;5111976;28;20139;-69
2021/12/11 02:01:35;;;;;;;72.63;33.03;;;1.70;99.90;;;;;;5111951;28;20419;-69
2021/12/11 02:04:03;;;;;;;73.23;29.63;;;1.70;99.90;;;;;;5111115;28;20503;-69
2021/12/11 02:06:33;;;;;;;72.03;28.90;;;1.70;99.90;;;;;;5110793;28;20104;-69
2021/12/11 02:09:10;;;;;;;66.57;27.57;;;1.60;99.90;;;;;;5111426;28;20388;-69
2021/12/11 02:11:37;;;;;;;59.07;28.43;;;1.60;99.90;;;;;;5111739;28;20522;-69
2021/12/11 02:14:07;;;;;;;75.03;30.13;;;1.60;99.90;;;;;;5111336;28;20097;-69
2021/12/11 02:16:38;;;;;;;76.10;28.83;;;1.70;99.90;;;;;;5110764;28;20063;-69
2021/12/11 02:19:13;;;;;;;59.07;25.83;;;1.60;99.90;;;;;;5111629;28;20059;-69
2021/12/11 02:21:49;;;;;;;66.83;27.87;;;1.60;99.90;;;;;;5111728;28;20048;-69
2021/12/11 02:24:21;;;;;;;69.55;29.60;;;1.60;99.90;;;;;;5110988;28;20100;-69
2021/12/11 02:26:49;;;;;;;69.40;29.03;;;1.70;99.90;;;;;;5110924;28;20128;-69
2021/12/11 02:29:22;;;;;;;75.67;30.47;;;1.70;99.90;;;;;;5111136;28;20130;-69
2021/12/11 02:31:53;;;;;;;73.30;30.07;;;1.70;99.90;;;;;;5111224;28;20059;-69
2021/12/11 02:34:26;;;;;;;72.03;30.93;;;1.70;99.90;;;;;;5110792;28;20051;-69
2021/12/11 02:37:02;;;;;;;77.70;31.23;;;1.60;99.90;;;;;;5110504;28;20123;-69
2021/12/11 02:39:32;;;;;;;69.03;32.13;;;1.60;99.90;;;;;;5110846;28;20396;-69
2021/12/11 02:42:11;;;;;;;79.07;31.13;;;1.60;99.90;;;;;;5111278;28;20089;-69
2021/12/11 02:44:44;;;;;;;69.83;30.80;;;1.70;99.90;;;;;;5110502;28;20096;-69
2021/12/11 02:47:16;;;;;;;68.27;27.97;;;1.70;99.90;;;;;;5111175;28;20105;-68
2021/12/11 02:49:46;;;;;;;65.07;28.20;;;1.70;99.90;;;;;;5110603;28;20101;-69
2021/12/11 02:52:21;;;;;;;61.83;28.50;;;1.70;99.90;;;;;;5110630;28;20560;-69
2021/12/11 02:54:52;;;;;;;66.30;29.77;;;1.70;99.90;;;;;;5109914;28;20548;-68
2021/12/11 02:57:25;;;;;;;70.93;28.63;;;1.70;99.90;;;;;;5111402;28;20385;-68
2021/12/11 02:59:53;;;;;;;72.23;29.23;;;1.60;99.90;;;;;;5113082;28;20070;-69
2021/12/11 03:02:25;;;;;;;66.27;26.03;;;1.70;99.90;;;;;;5114039;28;20047;-69
2021/12/11 03:04:57;;;;;;;61.90;27.57;;;1.70;99.90;;;;;;5110628;28;20051;-68
2021/12/11 03:07:35;;;;;;;66.10;27.37;;;1.70;99.90;;;;;;5110800;28;20056;-68
2021/12/11 03:10:05;;;;;;;65.73;27.77;;;1.70;99.90;;;;;;5110557;28;20062;-69
2021/12/11 03:12:32;;;;;;;59.70;26.70;;;1.70;99.90;;;;;;5110678;28;20082;-69
2021/12/11 03:14:59;;;;;;;64.63;26.50;;;1.70;99.90;;;;;;5108997;28;20054;-69
2021/12/11 03:17:27;;;;;;;73.60;27.47;;;1.70;99.90;;;;;;5110978;28;20047;-69
2021/12/11 03:19:55;;;;;;;59.50;24.80;;;1.70;99.90;;;;;;5128143;28;20077;-69
2021/12/11 03:22:27;;;;;;;62.90;26.17;;;1.70;99.90;;;;;;5228814;22;20051;-74
2021/12/11 03:24:55;;;;;;;59.77;26.43;;;1.70;99.90;;;;;;5112294;28;20053;-73
2021/12/11 03:27:22;;;;;;;63.93;27.00;;;1.80;99.90;;;;;;5114183;28;20096;-73
2021/12/11 03:29:49;;;;;;;62.23;25.40;;;1.60;99.90;;;;;;5113482;28;20052;-74
2021/12/11 03:32:17;;;;;;;57.50;24.33;;;1.60;99.90;;;;;;5114072;28;20055;-74
2021/12/11 03:34:46;;;;;;;59.20;24.57;;;1.70;99.90;;;;;;5112839;28;20047;-74
2021/12/11 03:37:16;;;;;;;65.13;26.37;;;1.70;99.90;;;;;;5113261;28;20096;-74
2021/12/11 03:39:51;;;;;;;61.93;25.57;;;1.70;99.90;;;;;;5114192;28;20101;-72
2021/12/11 03:42:23;;;;;;;64.03;26.13;;;1.70;99.90;;;;;;5113585;28;20503;-73
2021/12/11 03:44:50;;;;;;;64.40;25.93;;;1.70;99.90;;;;;;5112787;28;20105;-73
2021/12/11 03:47:22;;;;;;;65.27;25.07;;;1.70;99.90;;;;;;5113424;28;20067;-73
2021/12/11 03:49:49;;;;;;;58.07;23.23;;;1.60;99.90;;;;;;5113322;28;20488;-73
2021/12/11 03:52:17;;;;;;;60.17;24.57;;;1.60;99.90;;;;;;5113061;28;20059;-74
2021/12/11 03:54:50;;;;;;;58.83;23.47;;;1.50;99.90;;;;;;5112643;28;20096;-73
2021/12/11 03:57:21;;;;;;;61.60;24.13;;;1.50;99.90;;;;;;5113814;28;20451;-75
2021/12/11 03:59:49;;;;;;;74.37;26.47;;;1.60;99.90;;;;;;5114002;28;20058;-72
2021/12/11 04:02:19;;;;;;;71.03;25.47;;;1.60;99.90;;;;;;5112760;28;20047;-73
2021/12/11 04:04:49;;;;;;;75.23;25.73;;;1.60;99.90;;;;;;5113195;28;20120;-72
2021/12/11 04:07:19;;;;;;;67.93;26.03;;;1.60;99.90;;;;;;5113252;28;20052;-73
2021/12/11 04:09:49;;;;;;;62.10;24.03;;;1.60;99.90;;;;;;5113554;28;20109;-72
2021/12/11 04:12:17;;;;;;;65.73;24.83;;;1.60;99.90;;;;;;5112985;28;20047;-74
2021/12/11 04:14:48;;;;;;;66.63;24.63;;;1.60;99.90;;;;;;5112340;28;20059;-72
2021/12/11 04:17:18;;;;;;;64.83;26.63;;;1.60;99.90;;;;;;5112818;28;20052;-72
2021/12/11 04:19:46;;;;;;;64.57;25.43;;;1.70;99.90;;;;;;5113500;28;20614;-73
2021/12/11 04:22:13;;;;;;;63.33;25.00;;;1.70;99.90;;;;;;5112479;28;20052;-72
2021/12/11 04:24:44;;;;;;;65.50;25.77;;;1.70;99.90;;;;;;5112833;28;20047;-72
2021/12/11 04:27:17;;;;;;;61.13;23.63;;;1.70;99.90;;;;;;5112790;28;20070;-73
2021/12/11 04:29:47;;;;;;;75.10;26.57;;;1.70;99.90;;;;;;5113705;28;20448;-72
2021/12/11 04:32:15;;;;;;;62.60;25.50;;;1.70;99.90;;;;;;5117374;28;20236;-72
2021/12/11 04:34:42;;;;;;;62.90;24.57;;;1.80;99.90;;;;;;5115578;28;20074;-73
2021/12/11 04:37:15;;;;;;;64.63;25.23;;;1.70;99.90;;;;;;5116655;28;20051;-72
2021/12/11 04:39:45;;;;;;;63.70;24.70;;;1.70;99.90;;;;;;5117459;28;20055;-73
2021/12/11 04:42:25;;;;;;;63.23;24.23;;;1.80;99.90;;;;;;5117043;28;20414;-73
2021/12/11 04:44:52;;;;;;;57.77;23.83;;;1.70;99.90;;;;;;5116071;28;20055;-73
2021/12/11 04:47:32;;;;;;;61.80;25.27;;;1.70;99.90;;;;;;5116696;28;20051;-72
2021/12/11 04:50:06;;;;;;;58.43;24.33;;;1.70;99.90;;;;;;5117156;28;20060;-72
2021/12/11 04:52:44;;;;;;;59.60;24.43;;;1.70;99.90;;;;;;5116432;28;20077;-73
2021/12/11 04:55:25;;;;;;;59.93;22.57;;;1.70;99.90;;;;;;5115957;28;20113;-73
2021/12/11 04:58:07;;;;;;;58.20;24.20;;;1.60;99.90;;;;;;5116165;28;20298;-73
2021/12/11 05:00:49;;;;;;;54.90;24.27;;;1.70;99.90;;;;;;5116808;28;20510;-73
2021/12/11 05:11:37;;;;;;;52.27;22.13;;;1.70;99.90;;;;;;5105376;28;20107;-73
2021/12/11 05:14:08;;;;;;;61.47;23.10;;;1.70;99.90;;;;;;5116461;28;20040;-73
2021/12/11 05:16:35;;;;;;;61.90;25.30;;;1.70;99.90;;;;;;5114762;28;20063;-74
2021/12/11 05:19:03;;;;;;;63.23;26.23;;;1.70;99.90;;;;;;5116532;28;20407;-73
2021/12/11 05:21:30;;;;;;;56.43;23.77;;;1.80;99.90;;;;;;5116125;28;20059;-75
2021/12/11 05:23:58;;;;;;;57.83;23.97;;;1.80;99.90;;;;;;5116146;28;20052;-72
2021/12/11 05:26:25;;;;;;;59.33;25.40;;;1.80;99.90;;;;;;5115494;28;20065;-73
2021/12/11 05:28:52;;;;;;;60.40;25.17;;;1.80;99.90;;;;;;5115948;28;20047;-73
2021/12/11 05:31:21;;;;;;;54.83;23.77;;;1.80;99.90;;;;;;5115746;28;20044;-72
2021/12/11 05:33:48;;;;;;;56.17;23.30;;;1.80;99.90;;;;;;5115289;28;20105;-74
2021/12/11 05:36:18;;;;;;;52.90;21.70;;;1.80;99.90;;;;;;5115508;28;20047;-74
2021/12/11 05:38:47;;;;;;;58.67;24.10;;;1.80;99.90;;;;;;5115464;28;20047;-73
2021/12/11 05:41:19;;;;;;;51.43;21.93;;;1.80;99.90;;;;;;5114846;28;20044;-72
2021/12/11 05:43:47;;;;;;;56.00;23.80;;;1.70;99.90;;;;;;5115730;28;20043;-73
2021/12/11 05:46:15;;;;;;;54.73;24.57;;;1.80;99.90;;;;;;5115262;28;20151;-72
2021/12/11 05:48:47;;;;;;;55.10;23.00;;;1.80;99.90;;;;;;5115803;28;20047;-73
2021/12/11 05:51:19;;;;;;;56.23;22.87;;;1.70;99.90;;;;;;5116270;28;20392;-73
2021/12/11 05:53:47;;;;;;;55.33;22.90;;;1.70;99.90;;;;;;5114654;28;20043;-72
2021/12/11 05:56:18;;;;;;;58.73;24.43;;;1.70;99.90;;;;;;5115217;28;20294;-73
2021/12/11 05:58:56;;;;;;;58.77;23.90;;;1.70;99.90;;;;;;5115295;28;20067;-73
2021/12/11 06:01:30;;;;;;;55.77;24.10;;;1.80;99.90;;;;;;5115812;28;20546;-73
2021/12/11 06:04:00;;;;;;;53.93;22.93;;;1.80;99.90;;;;;;5114532;28;20453;-73
2021/12/11 06:06:27;;;;;;;50.17;22.37;;;1.80;99.90;;;;;;5115057;28;20048;-73
2021/12/11 06:08:54;;;;;;;55.70;23.33;;;1.80;99.90;;;;;;5113920;28;20120;-75
2021/12/11 06:11:21;;;;;;;60.50;24.37;;;1.80;99.90;;;;;;5114013;28;20453;-73
2021/12/11 06:13:49;;;;;;;57.80;24.20;;;1.80;99.90;;;;;;5113984;28;20100;-73
2021/12/11 06:16:17;;;;;;;54.57;24.03;;;1.80;99.90;;;;;;5114576;28;20465;-77
2021/12/11 06:18:46;;;;;;;56.83;24.40;;;1.70;99.90;;;;;;5114532;28;20271;-73
2021/12/11 06:21:16;;;;;;;58.07;24.23;;;1.70;99.90;;;;;;5114950;28;20130;-73
2021/12/11 06:23:44;;;;;;;54.53;23.63;;;1.70;99.90;;;;;;5115012;28;20052;-74
2021/12/11 06:26:12;;;;;;;59.73;23.47;;;1.70;99.90;;;;;;5113737;28;20065;-73
2021/12/11 06:28:40;;;;;;;68.43;26.07;;;1.80;99.90;;;;;;5114861;28;20048;-73
2021/12/11 06:31:07;;;;;;;59.70;25.53;;;1.80;99.90;;;;;;5115006;28;20137;-73
2021/12/11 06:33:35;;;;;;;56.53;23.47;;;1.80;99.90;;;;;;5114414;28;20039;-73
2021/12/11 06:36:06;;;;;;;54.27;23.07;;;1.80;99.90;;;;;;5114402;28;20130;-73
2021/12/11 06:38:36;;;;;;;63.30;25.03;;;1.90;99.90;;;;;;5114522;28;20051;-73
2021/12/11 06:41:06;;;;;;;63.37;25.50;;;1.80;99.90;;;;;;5114749;28;20075;-73
2021/12/11 06:43:34;;;;;;;65.60;24.27;;;1.90;99.90;;;;;;5115149;28;20051;-74
2021/12/11 06:46:02;;;;;;;53.73;22.33;;;1.90;99.90;;;;;;5114016;28;20162;-73
2021/12/11 06:48:29;;;;;;;62.27;23.83;;;1.90;99.90;;;;;;5114204;28;20047;-73
2021/12/11 06:50:59;;;;;;;61.40;24.43;;;1.90;99.90;;;;;;5114772;28;20043;-75
2021/12/11 06:53:38;;;;;;;60.73;24.57;;;1.80;99.90;;;;;;5113325;28;20040;-74
2021/12/11 06:56:07;;;;;;;63.50;23.97;;;1.80;99.90;;;;;;5113609;28;20085;-74
2021/12/11 06:58:37;;;;;;;61.43;24.33;;;1.90;99.90;;;;;;5114052;28;20055;-73
2021/12/11 07:01:06;;;;;;;53.57;21.77;;;1.80;99.90;;;;;;5114515;28;20048;-73
2021/12/11 07:03:33;;;;;;;57.03;23.23;;;1.90;99.90;;;;;;5113810;28;20052;-74
2021/12/11 07:06:01;;;;;;;54.20;22.27;;;1.90;99.90;;;;;;5113319;28;20503;-74
2021/12/11 07:08:29;;;;;;;52.13;22.10;;;1.90;99.90;;;;;;5113450;28;20104;-73
2021/12/11 07:10:59;;;;;;;49.90;21.47;;;1.90;99.90;;;;;;5114729;28;20121;-73
2021/12/11 07:13:26;;;;;;;50.90;21.07;;;1.90;99.90;;;;;;5113625;28;20039;-73
2021/12/11 07:15:56;;;;;;;55.47;23.40;;;1.90;99.90;;;;;;5113414;28;20048;-73
2021/12/11 07:18:23;;;;;;;55.57;22.27;;;2.00;99.90;;;;;;5113393;28;20109;-73
2021/12/11 07:20:50;;;;;;;52.57;23.50;;;2.00;99.90;;;;;;5113768;28;20043;-73
2021/12/11 07:23:17;;;;;;;53.70;22.53;;;2.00;99.90;;;;;;5113137;28;20491;-73
2021/12/11 07:25:50;;;;;;;52.03;23.63;;;2.00;99.90;;;;;;5112664;28;20047;-73
2021/12/11 07:28:20;;;;;;;53.07;23.90;;;2.00;99.90;;;;;;5113878;28;20054;-72
2021/12/11 07:30:49;;;;;;;57.67;22.43;;;2.00;99.90;;;;;;5113817;28;20054;-73
2021/12/11 07:33:18;;;;;;;56.27;23.23;;;2.00;99.90;;;;;;5113276;28;20052;-73
2021/12/11 07:35:47;;;;;;;50.00;22.70;;;2.00;99.90;;;;;;5112783;28;20039;-74
2021/12/11 07:38:14;;;;;;;54.33;21.73;;;2.00;99.90;;;;;;5113324;28;20483;-73
2021/12/11 07:40:45;;;;;;;58.83;23.40;;;2.00;99.90;;;;;;5113231;28;20576;-75
2021/12/11 07:43:14;;;;;;;54.53;23.83;;;2.00;99.90;;;;;;5114777;28;20056;-74
2021/12/11 07:45:43;;;;;;;52.93;21.70;;;2.10;99.90;;;;;;5112481;28;20077;-74
2021/12/11 07:48:11;;;;;;;59.17;23.77;;;2.10;99.90;;;;;;5114326;28;20039;-74
2021/12/11 07:50:38;;;;;;;57.63;23.10;;;2.10;99.90;;;;;;5113679;28;20048;-74
2021/12/11 07:53:06;;;;;;;54.80;22.37;;;2.10;99.90;;;;;;5113466;28;20097;-74
2021/12/11 07:55:34;;;;;;;61.03;23.27;;;2.10;99.90;;;;;;5112366;28;20571;-74
2021/12/11 07:58:01;;;;;;;51.13;22.73;;;2.10;99.90;;;;;;5113662;28;20055;-73
2021/12/11 08:00:30;;;;;;;58.63;22.73;;;2.10;99.90;;;;;;5113329;28;20051;-76
2021/12/11 08:02:58;;;;;;;51.33;20.40;;;2.20;99.90;;;;;;5113736;28;20050;-74
2021/12/11 08:05:27;;;;;;;53.00;21.57;;;2.20;99.90;;;;;;5115685;28;20051;-75
2021/12/11 08:07:58;;;;;;;48.87;21.57;;;2.10;99.90;;;;;;5117211;28;20047;-76
2021/12/11 08:10:25;;;;;;;51.93;21.20;;;2.10;99.90;;;;;;5117573;28;20047;-74
2021/12/11 08:12:52;;;;;;;56.67;23.57;;;2.20;99.90;;;;;;5117654;28;20056;-74
2021/12/11 08:15:20;;;;;;;50.40;21.17;;;2.30;99.90;;;;;;5116907;28;20069;-73
2021/12/11 08:17:54;;;;;;;44.63;20.27;;;2.20;99.90;;;;;;5117769;28;20070;-74
2021/12/11 08:20:24;;;;;;;53.57;22.60;;;2.30;99.90;;;;;;5117532;28;20048;-75
2021/12/11 08:22:51;;;;;;;48.60;22.27;;;2.30;99.90;;;;;;5117379;28;20048;-74
2021/12/11 08:25:19;;;;;;;48.83;20.73;;;2.30;99.90;;;;;;5115733;28;20051;-75
2021/12/11 08:27:46;;;;;;;47.27;21.53;;;2.40;99.90;;;;;;5118013;28;20063;-73
2021/12/11 08:30:13;;;;;;;49.40;21.27;;;2.40;99.90;;;;;;5117269;28;20116;-75
2021/12/11 08:32:41;;;;;;;59.23;22.67;;;2.30;99.90;;;;;;5117599;28;20051;-73
2021/12/11 08:35:10;;;;;;;46.23;20.20;;;2.40;99.90;;;;;;5115687;28;20040;-75
2021/12/11 08:37:41;;;;;;;45.93;21.03;;;2.40;99.90;;;;;;5117899;28;20047;-73
2021/12/11 08:40:12;;;;;;;49.20;23.23;;;2.30;99.90;;;;;;5116412;28;20472;-74
2021/12/11 08:42:41;;;;;;;46.93;20.83;;;2.40;99.90;;;;;;5117587;28;20047;-73
2021/12/11 08:45:13;;;;;;;50.03;22.10;;;2.30;99.90;;;;;;5116588;28;20499;-73
2021/12/11 08:47:42;;;;;;;46.70;20.27;;;2.40;99.90;;;;;;5117495;28;20485;-73
2021/12/11 08:50:15;;;;;;;47.53;21.03;;;2.50;99.90;;;;;;5116099;28;20092;-73
2021/12/11 08:52:46;;;;;;;49.80;21.10;;;2.50;99.90;;;;;;5116515;28;20056;-73
2021/12/11 08:55:17;;;;;;;44.80;21.03;;;2.60;99.90;;;;;;5115252;28;20047;-75
2021/12/11 08:57:46;;;;;;;45.67;20.83;;;2.60;99.90;;;;;;5116926;28;20105;-73
2021/12/11 09:00:19;;;;;;;49.00;20.93;;;2.60;99.90;;;;;;5115781;28;20055;-73
2021/12/11 09:02:50;;;;;;;41.57;18.17;;;2.70;99.90;;;;;;5116181;28;20051;-72
2021/12/11 09:05:24;;;;;;;47.47;20.57;;;2.70;99.90;;;;;;5114840;28;20073;-73
2021/12/11 09:07:58;;;;;;;36.43;19.13;;;2.70;99.90;;;;;;5116400;28;20092;-72
2021/12/11 09:10:30;;;;;;;41.57;19.00;;;2.70;99.90;;;;;;5115910;28;20047;-72
2021/12/11 09:13:02;;;;;;;37.07;19.03;;;2.70;99.90;;;;;;5116296;28;20116;-72
2021/12/11 09:15:33;;;;;;;35.40;16.97;;;2.70;99.90;;;;;;5114583;28;20497;-73
2021/12/11 09:18:04;;;;;;;41.57;17.77;;;2.80;99.90;;;;;;5115812;28;20048;-71
2021/12/11 09:20:37;;;;;;;39.90;19.97;;;2.90;99.90;;;;;;5116083;28;20563;-75
2021/12/11 09:23:12;;;;;;;44.13;19.13;;;2.90;99.90;;;;;;5116266;28;20062;-71
2021/12/11 09:25:44;;;;;;;33.57;17.73;;;3.00;99.90;;;;;;5113773;28;20484;-73
2021/12/11 09:28:15;;;;;;;35.83;17.07;;;2.90;99.90;;;;;;5116633;28;20100;-74
2021/12/11 09:30:46;;;;;;;33.83;16.33;;;2.80;99.90;;;;;;5115659;28;20551;-72
2021/12/11 09:33:16;;;;;;;32.53;17.00;;;2.80;99.90;;;;;;5116039;28;20051;-73
2021/12/11 09:35:47;;;;;;;34.67;16.13;;;2.80;99.90;;;;;;5114586;28;20100;-72
2021/12/11 09:38:20;;;;;;;33.33;16.80;;;3.00;99.90;;;;;;5115817;28;20055;-73
2021/12/11 09:40:52;;;;;;;35.73;17.23;;;3.00;99.90;;;;;;5115809;28;20044;-74
2021/12/11 09:43:46;;;;;;;33.90;16.40;;;2.90;99.90;;;;;;5115582;28;20047;-73
2021/12/11 09:46:17;;;;;;;36.53;16.80;;;3.00;99.90;;;;;;5099903;28;20128;-72
2021/12/11 09:48:47;;;;;;;36.27;17.30;;;3.00;99.90;;;;;;5115759;28;20423;-75
2021/12/11 09:51:16;;;;;;;35.47;16.83;;;2.90;99.90;;;;;;5115464;28;20051;-72
2021/12/11 09:53:46;;;;;;;33.40;16.60;;;3.00;99.90;;;;;;5115410;28;20048;-72
2021/12/11 09:56:19;;;;;;;33.70;16.57;;;3.00;99.90;;;;;;5113912;28;20105;-74
2021/12/11 09:58:48;;;;;;;29.50;14.70;;;3.20;99.90;;;;;;5115432;28;20044;-72
2021/12/11 10:01:17;;;;;;;28.37;15.37;;;3.20;99.90;;;;;;5116132;28;20043;-75
2021/12/11 10:03:52;;;;;;;30.00;14.30;;;3.30;99.90;;;;;;5115027;28;20055;-73
2021/12/11 10:06:41;;;;;;;28.53;13.67;;;3.40;99.90;;;;;;5113802;28;20039;-72
2021/12/11 10:09:18;;;;;;;28.67;14.00;;;3.50;99.90;;;;;;5115277;28;20142;-75
2021/12/11 10:11:51;;;;;;;26.23;13.90;;;3.70;99.90;;;;;;5114264;28;20139;-72
2021/12/11 10:14:22;;;;;;;28.80;14.23;;;3.70;99.90;;;;;;5114369;28;20043;-72
2021/12/11 10:16:55;;;;;;;25.33;13.43;;;3.80;99.90;;;;;;5113572;28;20058;-72
2021/12/11 10:19:29;;;;;;;29.53;13.83;;;3.70;99.90;;;;;;5115109;28;20084;-71
2021/12/11 10:22:04;;;;;;;27.08;14.35;;;3.90;99.90;;;;;;5113938;28;20519;-72
2021/12/11 10:24:34;;;;;;;25.30;13.70;;;4.10;99.90;;;;;;5114033;28;20051;-73
2021/12/11 10:27:03;;;;;;;27.70;13.85;;;4.10;99.90;;;;;;5113458;28;20047;-72
2021/12/11 10:29:32;;;;;;;26.38;13.50;;;4.20;99.90;;;;;;5113694;28;20039;-72
2021/12/11 10:32:02;;;;;;;28.27;14.43;;;4.00;99.90;;;;;;5114021;28;20087;-73
2021/12/11 10:34:32;;;;;;;26.00;13.68;;;4.10;99.90;;;;;;5114067;28;20068;-72
2021/12/11 10:37:03;;;;;;;29.25;14.90;;;4.10;99.90;;;;;;5113993;28;20088;-73
2021/12/11 10:39:30;;;;;;;25.25;12.52;;;3.80;99.90;;;;;;5115761;28;20040;-74
2021/12/11 10:41:58;;;;;;;27.92;11.63;;;3.80;99.90;;;;;;5115364;28;20085;-73
2021/12/11 10:44:29;;;;;;;23.30;11.00;;;3.90;99.90;;;;;;5115836;28;20378;-73
2021/12/11 10:47:03;;;;;;;23.75;11.65;;;3.90;99.90;;;;;;5114379;28;20487;-73
2021/12/11 10:49:30;;;;;;;24.48;10.82;;;3.80;99.90;;;;;;5115394;28;20167;-73
2021/12/11 10:52:01;;;;;;;23.58;11.35;;;3.80;99.90;;;;;;5114762;28;20423;-73
2021/12/11 10:54:30;;;;;;;26.15;13.25;;;3.80;99.90;;;;;;5115205;28;20551;-76
2021/12/11 10:56:57;;;;;;;24.05;11.10;;;4.10;99.90;;;;;;5113586;28;20054;-71
2021/12/11 10:59:27;;;;;;;19.80;9.77;;;4.20;99.90;;;;;;5114670;28;20047;-76
2021/12/11 11:01:59;;;;;;;20.40;9.80;;;4.20;99.90;;;;;;5114195;28;20052;-75
2021/12/11 11:04:28;;;;;;;20.55;10.18;;;4.30;99.90;;;;;;5115336;28;20144;-73
2021/12/11 11:06:56;;;;;;;18.90;9.55;;;4.30;99.90;;;;;;5114751;28;20047;-76
2021/12/11 11:09:26;;;;;;;18.38;9.00;;;4.20;99.90;;;;;;5115028;28;20043;-74
2021/12/11 11:11:58;;;;;;;17.45;9.00;;;4.00;99.90;;;;;;5113976;28;20051;-73
2021/12/11 11:14:26;;;;;;;19.83;9.70;;;4.00;99.90;;;;;;5114289;28;20096;-73
2021/12/11 11:16:58;;;;;;;19.10;9.32;;;4.20;99.90;;;;;;5113697;28;20069;-73
2021/12/11 11:19:28;;;;;;;17.52;8.95;;;4.10;99.90;;;;;;5113931;28;20108;-73
2021/12/11 11:21:59;;;;;;;21.58;9.27;;;4.10;99.90;;;;;;5116493;28;20487;-74
2021/12/11 11:24:29;;;;;;;17.98;9.07;;;4.40;99.90;;;;;;5115795;28;20069;-73
2021/12/11 11:26:57;;;;;;;20.52;10.57;;;4.50;99.90;;;;;;5115167;28;20052;-76
2021/12/11 11:29:26;;;;;;;20.33;10.48;;;4.50;99.90;;;;;;5114677;28;20097;-75
2021/12/11 11:31:56;;;;;;;22.70;9.77;;;4.40;99.90;;;;;;5116229;28;20203;-74
2021/12/11 11:34:27;;;;;;;18.92;9.10;;;4.30;99.90;;;;;;5116680;28;20043;-74
2021/12/11 11:36:57;;;;;;;18.08;8.73;;;4.10;99.90;;;;;;5113608;28;20086;-74
2021/12/11 11:39:25;;;;;;;16.15;8.23;;;3.90;99.90;;;;;;5112118;28;20044;-73
2021/12/11 11:41:57;;;;;;;19.38;9.43;;;4.00;99.90;;;;;;5097825;28;20096;-74
2021/12/11 11:44:27;;;;;;;18.52;8.63;;;4.10;99.90;;;;;;5097873;28;20044;-73
2021/12/11 11:46:59;;;;;;;20.70;8.93;;;4.00;99.90;;;;;;5093083;28;20453;-74
2021/12/11 11:49:29;;;;;;;20.02;8.57;;;4.00;99.90;;;;;;5092790;28;20048;-74
2021/12/11 11:52:00;;;;;;;18.25;8.50;;;3.90;99.90;;;;;;5111629;28;20044;-73
2021/12/11 11:54:30;;;;;;;16.20;8.65;;;3.90;99.90;;;;;;5113641;28;20103;-76
2021/12/11 11:57:00;;;;;;;20.02;9.43;;;3.90;99.90;;;;;;5113979;28;20065;-75
2021/12/11 11:59:27;;;;;;;15.75;8.50;;;3.90;99.90;;;;;;5112434;28;20047;-75
2021/12/11 12:02:00;;;;;;;18.73;9.48;;;3.80;99.90;;;;;;5108023;28;20450;-74
2021/12/11 12:04:31;;;;;;;17.60;8.93;;;3.80;99.90;;;;;;5108737;28;20515;-73
2021/12/11 12:07:02;;;;;;;22.08;9.60;;;3.80;99.90;;;;;;5112843;28;20044;-73
2021/12/11 12:09:32;;;;;;;19.25;9.85;;;3.90;99.90;;;;;;5113343;28;20064;-74
2021/12/11 12:12:00;;;;;;;17.75;9.27;;;3.90;99.90;;;;;;5113279;28;20065;-72
2021/12/11 12:14:30;;;;;;;20.63;9.80;;;3.80;99.90;;;;;;5112519;28;20058;-72
2021/12/11 12:16:58;;;;;;;20.75;9.88;;;3.80;99.90;;;;;;5112554;28;20052;-80
2021/12/11 12:19:26;;;;;;;18.13;9.80;;;3.80;99.90;;;;;;5113260;28;20056;-73
2021/12/11 12:21:58;;;;;;;24.10;9.57;;;3.80;99.90;;;;;;5112714;28;20100;-73
2021/12/11 12:24:32;;;;;;;20.92;9.98;;;3.80;99.90;;;;;;5113747;28;20055;-74
2021/12/11 12:27:00;;;;;;;20.35;9.85;;;3.80;99.90;;;;;;5113004;28;20753;-72
2021/12/11 12:29:28;;;;;;;23.45;10.23;;;3.80;99.90;;;;;;5112653;28;20094;-73
2021/12/11 12:31:58;;;;;;;23.42;9.95;;;3.80;99.90;;;;;;5112747;28;20087;-73
2021/12/11 12:34:27;;;;;;;18.40;9.63;;;3.80;99.90;;;;;;5112405;28;20055;-73
2021/12/11 12:36:57;;;;;;;18.13;10.27;;;3.70;99.90;;;;;;5111544;28;20100;-73
2021/12/11 12:39:33;;;;;;;19.42;9.98;;;3.80;99.90;;;;;;5112353;28;20113;-73
2021/12/11 12:42:15;;;;;;;19.45;9.63;;;3.70;99.90;;;;;;5114436;28;20538;-73
2021/12/11 12:44:44;;;;;;;20.27;9.48;;;3.70;99.90;;;;;;5112756;28;20052;-73
2021/12/11 12:47:13;;;;;;;19.38;9.75;;;3.80;99.90;;;;;;5112841;28;20487;-73
2021/12/11 12:49:45;;;;;;;21.08;9.05;;;3.70;99.90;;;;;;5112981;28;20101;-73
2021/12/11 12:52:17;;;;;;;25.90;10.07;;;3.70;99.90;;;;;;5115986;28;20483;-74
2021/12/11 12:54:45;;;;;;;21.80;10.57;;;3.70;99.90;;;;;;5116642;28;20056;-74
2021/12/11 12:57:17;;;;;;;25.75;11.63;;;3.70;99.90;;;;;;5117820;28;20487;-73
2021/12/11 12:59:52;;;;;;;32.47;14.80;;;3.50;99.90;;;;;;5117311;28;20048;-75
2021/12/11 13:02:22;;;;;;;26.80;12.85;;;3.40;99.90;;;;;;5117414;28;20132;-73
2021/12/11 13:04:52;;;;;;;24.27;11.73;;;3.40;99.90;;;;;;5116245;28;20047;-75